createdAt,value
2019-02-08T00:00:41.757Z,73.75
2019-02-08T00:03:14.233Z,73.72
2019-02-08T00:05:46.794Z,73.80
2019-02-08T00:08:19.208Z,73.85
2019-02-08T00:10:51.498Z,73.82
2019-02-08T00:13:24.192Z,73.76
2019-02-08T00:15:56.989Z,73.98
2019-02-08T00:18:32.292Z,73.93
2019-02-08T00:21:05.374Z,73.99
2019-02-08T00:23:37.677Z,74.02
2019-02-08T00:26:10.425Z,73.88
2019-02-08T00:28:42.832Z,74.04
2019-02-08T00:31:15.167Z,73.98
2019-02-08T00:33:48.019Z,74.00
2019-02-08T00:36:20.354Z,73.99
2019-02-08T00:38:52.874Z,74.11
2019-02-08T00:41:25.271Z,73.95
2019-02-08T00:43:57.521Z,73.86
2019-02-08T00:46:30.059Z,73.80
2019-02-08T00:49:02.415Z,73.89
2019-02-08T00:51:34.680Z,73.76
2019-02-08T00:54:07.265Z,73.83
2019-02-08T00:56:39.533Z,73.83
2019-02-08T00:59:12.213Z,73.94
2019-02-08T01:01:44.491Z,74.03
2019-02-08T01:04:17.879Z,73.98
2019-02-08T01:06:50.122Z,73.89
2019-02-08T01:09:22.414Z,73.79
2019-02-08T01:11:54.934Z,73.78
2019-02-08T01:14:27.387Z,73.77
2019-02-08T01:16:59.753Z,73.74
2019-02-08T01:19:32.083Z,73.82
2019-02-08T01:22:05.589Z,73.95
2019-02-08T01:24:42.520Z,73.93
2019-02-08T01:27:14.792Z,73.90
2019-02-08T01:29:48.175Z,73.86
2019-02-08T01:32:20.609Z,73.92
2019-02-08T01:34:52.933Z,73.83
2019-02-08T01:37:25.172Z,73.69
2019-02-08T01:39:57.411Z,73.59
2019-02-08T01:42:29.796Z,73.60
2019-02-08T01:45:02.818Z,73.58
2019-02-08T01:47:36.651Z,73.47
2019-02-08T01:50:12.890Z,73.50
2019-02-08T01:52:45.234Z,73.28
2019-02-08T01:55:18.098Z,73.10
2019-02-08T01:57:52.059Z,73.09
2019-02-08T02:00:26.817Z,73.08
2019-02-08T02:02:59.269Z,73.05
2019-02-08T02:05:31.903Z,73.00
2019-02-08T02:08:04.787Z,73.01
2019-02-08T02:10:40.587Z,72.92
2019-02-08T02:13:13.947Z,72.80
2019-02-08T02:15:47.198Z,72.87
2019-02-08T02:18:19.519Z,72.98
2019-02-08T02:20:53.360Z,72.87
2019-02-08T02:23:25.745Z,72.80
2019-02-08T02:25:58.172Z,72.81
2019-02-08T02:28:30.616Z,72.75
2019-02-08T02:31:02.962Z,72.62
2019-02-08T02:33:35.449Z,72.50
2019-02-08T02:36:07.861Z,72.41
2019-02-08T02:38:40.162Z,72.31
2019-02-08T02:41:12.529Z,72.35
2019-02-08T02:43:44.785Z,72.24
2019-02-08T02:46:17.089Z,72.13
2019-02-08T02:48:49.433Z,72.13
2019-02-08T02:51:21.695Z,72.01
2019-02-08T02:53:53.979Z,71.97
2019-02-08T02:56:27.335Z,71.89
2019-02-08T02:58:59.659Z,71.86
2019-02-08T03:01:31.903Z,71.76
2019-02-08T03:04:04.717Z,71.71
2019-02-08T03:06:37.746Z,71.56
2019-02-08T03:09:10.602Z,71.46
2019-02-08T03:11:42.953Z,71.35
2019-02-08T03:14:15.320Z,71.30
2019-02-08T03:16:47.582Z,71.33
2019-02-08T03:19:19.840Z,71.22
2019-02-08T03:21:52.193Z,71.13
2019-02-08T03:24:24.453Z,71.11
2019-02-08T03:26:56.837Z,70.98
2019-02-08T03:29:29.177Z,70.93
2019-02-08T03:32:01.416Z,70.88
2019-02-08T03:34:33.715Z,70.87
2019-02-08T03:37:05.987Z,70.86
2019-02-08T03:39:39.392Z,70.93
2019-02-08T03:42:11.624Z,70.83
2019-02-08T03:44:43.963Z,70.94
2019-02-08T03:47:16.223Z,70.87
2019-02-08T03:49:48.544Z,70.89
2019-02-08T03:52:20.894Z,70.90
2019-02-08T03:54:53.150Z,70.96
2019-02-08T03:57:25.379Z,70.96
2019-02-08T03:59:57.726Z,70.89
2019-02-08T04:02:30.100Z,70.88
2019-02-08T04:05:02.544Z,70.94
2019-02-08T04:07:34.864Z,70.94
2019-02-08T04:10:08.845Z,71.00
2019-02-08T04:12:41.236Z,71.05
2019-02-08T04:15:16.685Z,71.12
2019-02-08T04:17:49.250Z,71.16
2019-02-08T04:20:25.207Z,71.16
2019-02-08T04:22:58.537Z,70.99
2019-02-08T04:25:30.897Z,71.04
2019-02-08T04:28:03.158Z,71.09
2019-02-08T04:30:35.785Z,71.10
2019-02-08T04:33:08.138Z,71.08
2019-02-08T04:35:40.413Z,71.14
2019-02-08T04:38:12.688Z,71.14
2019-02-08T04:40:44.984Z,71.12
2019-02-08T04:43:17.330Z,71.14
2019-02-08T04:45:49.595Z,71.14
2019-02-08T04:48:21.942Z,71.17
2019-02-08T04:50:54.376Z,71.22
2019-02-08T04:53:26.655Z,71.19
2019-02-08T04:55:59.095Z,71.08
2019-02-08T04:58:35.584Z,71.20
2019-02-08T05:01:05.967Z,71.12
2019-02-08T05:03:38.349Z,71.14
2019-02-08T05:06:10.665Z,71.10
2019-02-08T05:08:43.082Z,70.97
2019-02-08T05:11:15.475Z,71.08
2019-02-08T05:13:47.852Z,71.20
2019-02-08T05:16:20.314Z,71.09
2019-02-08T05:18:52.630Z,71.07
2019-02-08T05:21:24.979Z,71.02
2019-02-08T05:23:58.409Z,71.07
2019-02-08T05:26:30.765Z,71.09
2019-02-08T05:29:03.011Z,71.09
2019-02-08T05:31:35.336Z,71.10
2019-02-08T05:34:07.749Z,71.28
2019-02-08T05:36:40.070Z,71.22
2019-02-08T05:39:12.401Z,71.36
2019-02-08T05:41:44.702Z,71.36
2019-02-08T05:44:17.091Z,71.35
2019-02-08T05:46:49.412Z,71.54
2019-02-08T05:49:21.696Z,71.67
2019-02-08T05:51:54.346Z,71.69
2019-02-08T05:54:26.747Z,71.57
2019-02-08T05:56:59.040Z,71.57
2019-02-08T05:59:31.330Z,71.64
2019-02-08T06:02:03.668Z,71.49
2019-02-08T06:04:36.074Z,71.42
2019-02-08T06:07:08.387Z,71.37
2019-02-08T06:09:40.719Z,71.44
2019-02-08T06:12:13.001Z,71.53
2019-02-08T06:14:45.394Z,71.78
2019-02-08T06:17:17.818Z,71.91
2019-02-08T06:19:50.102Z,71.91
2019-02-08T06:22:22.472Z,72.10
2019-02-08T06:25:03.301Z,72.20
2019-02-08T06:27:37.642Z,72.12
2019-02-08T06:30:14.940Z,72.08
2019-02-08T06:32:48.794Z,72.18
2019-02-08T06:35:23.376Z,72.08
2019-02-08T06:37:56.518Z,71.95
2019-02-08T06:40:30.833Z,71.90
2019-02-08T06:43:04.940Z,71.90
2019-02-08T06:45:37.534Z,71.99
2019-02-08T06:48:10.918Z,71.91
2019-02-08T06:50:43.286Z,72.10
2019-02-08T06:53:15.617Z,72.23
2019-02-08T06:55:53.848Z,72.11
2019-02-08T06:58:45.946Z,72.62
2019-02-08T07:01:35.820Z,72.37
2019-02-08T07:04:21.928Z,72.24
2019-02-08T07:07:05.736Z,71.93
2019-02-08T07:09:57.324Z,71.83
2019-02-08T07:12:51.698Z,71.51
2019-02-08T07:15:41.590Z,71.25
2019-02-08T07:18:19.658Z,71.33
2019-02-08T07:21:06.192Z,71.03
2019-02-08T07:23:53.687Z,70.80
2019-02-08T07:26:54.237Z,70.59
2019-02-08T07:29:35.798Z,70.53
2019-02-08T07:32:33.915Z,70.52
2019-02-08T07:35:16.184Z,70.31
2019-02-08T07:38:13.835Z,70.37
2019-02-08T07:41:05.554Z,70.18
2019-02-08T07:43:56.927Z,70.01
2019-02-08T07:47:06.725Z,70.01
2019-02-08T07:50:05.981Z,69.57
2019-02-08T07:52:52.021Z,69.57
2019-02-08T07:55:40.261Z,69.28
2019-02-08T07:58:32.188Z,69.24
2019-02-08T08:01:33.460Z,68.93
2019-02-08T08:04:26.921Z,68.79
2019-02-08T08:07:17.182Z,68.69
2019-02-08T08:10:08.941Z,68.73
2019-02-08T08:13:14.453Z,68.66
2019-02-08T08:16:05.080Z,68.23
2019-02-08T08:18:56.758Z,67.72
2019-02-08T08:21:47.108Z,67.25
2019-02-08T08:24:35.184Z,67.16
2019-02-08T08:27:16.403Z,66.49
2019-02-08T08:30:15.879Z,65.84
2019-02-08T08:33:17.473Z,65.35
2019-02-08T08:36:16.538Z,64.94
2019-02-08T08:39:45.085Z,64.40
2019-02-08T08:43:03.420Z,63.12
2019-02-08T08:46:21.166Z,62.25
2019-02-08T08:49:40.896Z,60.60
2019-02-08T08:52:47.513Z,58.26
2019-02-08T08:56:06.913Z,56.31
2019-02-08T08:59:06.525Z,55.21
2019-02-08T09:02:28.748Z,53.83
2019-02-08T09:05:40.546Z,52.29
2019-02-08T09:09:00.008Z,51.46
2019-02-08T09:11:55.540Z,50.01
2019-02-08T09:14:57.664Z,49.39
2019-02-08T09:18:26.031Z,48.69
2019-02-08T09:21:44.817Z,47.25
2019-02-08T09:24:54.647Z,46.89
2019-02-08T09:28:04.375Z,46.67
2019-02-08T09:31:26.782Z,46.73
2019-02-08T09:34:33.428Z,45.69
2019-02-08T09:37:48.646Z,45.78
2019-02-08T09:41:16.237Z,45.49
2019-02-08T09:44:24.178Z,44.73
2019-02-08T09:47:49.901Z,44.30
2019-02-08T09:50:55.383Z,42.98
2019-02-08T09:54:07.379Z,42.17
2019-02-08T09:57:20.339Z,42.44
2019-02-08T10:00:32.162Z,42.14
2019-02-08T10:03:50.519Z,41.66
2019-02-08T10:06:52.465Z,41.19
2019-02-08T10:09:56.459Z,41.00
2019-02-08T10:12:58.693Z,40.71
2019-02-08T10:16:02.107Z,39.87
2019-02-08T10:19:13.520Z,39.12
2019-02-08T10:22:47.829Z,40.42
2019-02-08T10:26:13.109Z,39.74
2019-02-08T10:29:33.237Z,39.71
2019-02-08T10:32:36.909Z,39.71
2019-02-08T10:35:56.085Z,38.93
2019-02-08T10:39:07.189Z,38.97
2019-02-08T10:42:15.096Z,39.85
2019-02-08T10:45:45.960Z,39.84
2019-02-08T10:48:58.400Z,40.05
2019-02-08T10:52:13.159Z,40.19
2019-02-08T10:55:24.052Z,39.47
2019-02-08T10:58:32.453Z,38.94
2019-02-08T11:01:47.861Z,38.85
2019-02-08T11:05:16.201Z,38.92
2019-02-08T11:08:35.480Z,38.49
2019-02-08T11:12:00.462Z,38.70
2019-02-08T11:15:18.647Z,39.24
2019-02-08T11:18:34.243Z,39.08
2019-02-08T11:21:07.357Z,39.71
2019-02-08T11:23:39.678Z,39.62
2019-02-08T11:26:12.060Z,39.78
2019-02-08T11:28:44.388Z,39.69
2019-02-08T11:31:16.719Z,40.70
2019-02-08T11:33:49.016Z,40.32
2019-02-08T11:36:21.600Z,39.32
2019-02-08T11:38:53.993Z,38.78
2019-02-08T11:41:26.389Z,38.94
2019-02-08T11:43:58.705Z,39.56
2019-02-08T11:46:30.981Z,40.32
2019-02-08T11:49:03.260Z,40.32
2019-02-08T11:51:36.446Z,39.83
2019-02-08T11:54:19.464Z,39.78
2019-02-08T11:57:02.269Z,39.92
2019-02-08T11:59:34.693Z,40.76
2019-02-08T12:02:07.890Z,40.14
2019-02-08T12:04:40.486Z,40.50
2019-02-08T12:07:12.762Z,41.57
2019-02-08T12:09:46.082Z,41.40
2019-02-08T12:12:18.336Z,41.03
2019-02-08T12:14:50.613Z,41.12
2019-02-08T12:17:22.892Z,40.81
2019-02-08T12:19:55.175Z,40.80
2019-02-08T12:22:27.499Z,41.29
2019-02-08T12:25:00.215Z,41.56
2019-02-08T12:27:32.608Z,41.77
2019-02-08T12:30:08.161Z,41.59
2019-02-08T12:32:40.518Z,42.03
2019-02-08T12:35:12.782Z,42.59
2019-02-08T12:37:45.141Z,41.76
2019-02-08T12:40:17.410Z,42.59
2019-02-08T12:42:49.778Z,42.19
2019-02-08T12:45:22.254Z,42.30
2019-02-08T12:47:54.627Z,42.35
2019-02-08T12:50:27.210Z,42.21
2019-02-08T12:52:59.544Z,42.49
2019-02-08T12:55:32.022Z,42.81
2019-02-08T12:58:04.282Z,42.36
2019-02-08T13:00:36.786Z,42.39
2019-02-08T13:03:09.081Z,43.08
2019-02-08T13:05:41.698Z,42.74
2019-02-08T13:08:13.943Z,43.40
2019-02-08T13:10:46.191Z,43.11
2019-02-08T13:13:18.479Z,42.95
2019-02-08T13:15:50.782Z,43.54
2019-02-08T13:18:23.042Z,43.40
2019-02-08T13:20:55.269Z,43.93
2019-02-08T13:23:27.604Z,43.79
2019-02-08T13:25:59.832Z,44.82
2019-02-08T13:28:32.658Z,44.95
2019-02-08T13:31:04.989Z,44.66
2019-02-08T13:33:37.344Z,44.84
2019-02-08T13:36:15.140Z,45.56
2019-02-08T13:38:47.404Z,45.28
2019-02-08T13:41:19.741Z,45.51
2019-02-08T13:43:52.073Z,45.45
2019-02-08T13:46:24.366Z,45.63
2019-02-08T13:48:56.686Z,44.63
2019-02-08T13:51:29.114Z,45.04
2019-02-08T13:54:01.366Z,45.51
2019-02-08T13:56:33.750Z,45.54
2019-02-08T13:59:06.172Z,45.35
2019-02-08T14:01:38.509Z,45.90
2019-02-08T14:04:11.780Z,45.86
2019-02-08T14:06:44.195Z,45.29
2019-02-08T14:09:16.470Z,45.25
2019-02-08T14:11:48.748Z,44.69
2019-02-08T14:14:21.049Z,45.07
2019-02-08T14:16:53.353Z,45.90
2019-02-08T14:19:25.694Z,47.02
2019-02-08T14:21:57.990Z,47.74
2019-02-08T14:24:30.472Z,48.35
2019-02-08T14:27:08.431Z,48.53
2019-02-08T14:29:36.843Z,48.15
2019-02-08T14:32:09.220Z,47.91
2019-02-08T14:34:43.728Z,48.43
2019-02-08T14:37:16.053Z,48.49
2019-02-08T14:39:48.592Z,48.59
2019-02-08T14:42:21.058Z,48.21
2019-02-08T14:44:53.461Z,48.89
2019-02-08T14:47:26.048Z,49.33
2019-02-08T14:49:58.491Z,49.57
2019-02-08T14:52:30.854Z,49.85
2019-02-08T14:55:04.797Z,50.59
2019-02-08T14:57:37.548Z,51.11
2019-02-08T15:00:13.159Z,51.39
2019-02-08T15:02:45.763Z,51.66
2019-02-08T15:05:19.035Z,52.21
2019-02-08T15:07:51.711Z,52.49
2019-02-08T15:10:29.590Z,52.53
2019-02-08T15:13:02.968Z,52.88
2019-02-08T15:15:35.390Z,52.94
2019-02-08T15:18:08.346Z,53.35
2019-02-08T15:20:40.704Z,53.47
2019-02-08T15:23:13.080Z,53.36
2019-02-08T15:25:45.521Z,53.58
2019-02-08T15:28:17.803Z,53.64
2019-02-08T15:30:50.365Z,53.93
2019-02-08T15:33:22.740Z,54.17
2019-02-08T15:35:56.917Z,54.30
2019-02-08T15:38:30.083Z,54.47
2019-02-08T15:41:02.578Z,54.48
2019-02-08T15:43:35.033Z,54.77
2019-02-08T15:46:07.877Z,55.04
2019-02-08T15:48:40.297Z,55.30
2019-02-08T15:51:12.641Z,55.26
2019-02-08T15:53:44.894Z,55.41
2019-02-08T15:56:17.941Z,55.66
2019-02-08T15:58:50.590Z,55.64
2019-02-08T16:01:23.287Z,55.83
2019-02-08T16:03:55.781Z,56.00
2019-02-08T16:06:28.135Z,56.17
2019-02-08T16:09:00.554Z,56.38
2019-02-08T16:11:34.415Z,56.64
2019-02-08T16:14:07.009Z,56.91
2019-02-08T16:16:39.379Z,57.08
2019-02-08T16:19:11.789Z,57.31
2019-02-08T16:21:44.229Z,57.53
2019-02-08T16:24:16.606Z,57.72
2019-02-08T16:26:49.146Z,57.89
2019-02-08T16:29:21.488Z,58.12
2019-02-08T16:31:54.118Z,58.20
2019-02-08T16:34:28.026Z,58.19
2019-02-08T16:37:03.629Z,58.20
2019-02-08T16:39:36.187Z,58.29
2019-02-08T16:42:08.652Z,58.29
2019-02-08T16:44:41.089Z,58.17
2019-02-08T16:47:13.950Z,58.17
2019-02-08T16:49:46.706Z,58.29
2019-02-08T16:52:19.018Z,58.34
2019-02-08T16:54:51.475Z,58.45
2019-02-08T16:57:23.802Z,58.63
2019-02-08T16:59:58.251Z,58.69
2019-02-08T17:02:32.544Z,58.75
2019-02-08T17:05:05.620Z,58.79
2019-02-08T17:07:37.982Z,58.83
2019-02-08T17:10:12.651Z,59.45
2019-02-08T17:12:45.040Z,58.97
2019-02-08T17:15:19.837Z,59.42
2019-02-08T17:17:54.840Z,59.27
2019-02-08T17:20:33.568Z,59.35
2019-02-08T17:23:08.971Z,59.59
2019-02-08T17:25:41.238Z,59.90
2019-02-08T17:28:13.700Z,60.41
2019-02-08T17:30:46.289Z,60.41
2019-02-08T17:33:18.729Z,60.45
2019-02-08T17:35:51.080Z,60.50
2019-02-08T17:38:24.152Z,60.58
2019-02-08T17:40:56.729Z,60.42
2019-02-08T17:43:29.248Z,60.78
2019-02-08T17:46:02.517Z,60.84
2019-02-08T17:48:34.947Z,61.07
2019-02-08T17:51:07.467Z,61.29
2019-02-08T17:53:39.956Z,61.35
2019-02-08T17:56:12.345Z,61.76
2019-02-08T17:58:48.119Z,61.86
2019-02-08T18:01:20.742Z,61.89
2019-02-08T18:03:53.140Z,61.95
2019-02-08T18:06:25.531Z,62.21
2019-02-08T18:08:58.121Z,62.26
2019-02-08T18:11:30.701Z,62.46
2019-02-08T18:14:03.121Z,62.39
2019-02-08T18:16:35.890Z,62.17
2019-02-08T18:19:08.820Z,62.02
2019-02-08T18:21:41.274Z,62.14
2019-02-08T18:24:14.644Z,62.32
2019-02-08T18:26:55.316Z,62.43
2019-02-08T18:29:28.029Z,62.56
2019-02-08T18:32:00.817Z,62.70
2019-02-08T18:34:33.465Z,62.73
2019-02-08T18:37:06.133Z,62.80
2019-02-08T18:39:39.969Z,62.82
2019-02-08T18:42:12.474Z,62.63
2019-02-08T18:44:44.843Z,62.61
2019-02-08T18:47:17.187Z,62.54
2019-02-08T18:49:49.766Z,62.81
2019-02-08T18:52:22.110Z,62.78
2019-02-08T18:54:54.408Z,62.86
2019-02-08T18:57:26.931Z,62.91
2019-02-08T18:59:59.259Z,62.86
2019-02-08T19:02:31.837Z,62.78
2019-02-08T19:05:05.173Z,63.37
2019-02-08T19:07:37.488Z,63.25
2019-02-08T19:10:12.508Z,63.35
2019-02-08T19:12:45.329Z,63.64
2019-02-08T19:15:18.756Z,63.78
2019-02-08T19:17:52.302Z,63.89
2019-02-08T19:20:25.023Z,63.99
2019-02-08T19:22:57.461Z,64.23
2019-02-08T19:25:34.926Z,64.37
2019-02-08T19:28:08.411Z,64.49
2019-02-08T19:30:40.854Z,64.54
2019-02-08T19:33:13.229Z,64.25
2019-02-08T19:35:45.614Z,64.53
2019-02-08T19:38:17.952Z,64.82
2019-02-08T19:40:50.317Z,64.81
2019-02-08T19:43:22.684Z,64.94
2019-02-08T19:45:55.293Z,64.98
2019-02-08T19:48:27.553Z,64.94
2019-02-08T19:50:59.941Z,64.87
2019-02-08T19:53:32.332Z,64.89
2019-02-08T19:56:05.112Z,65.06
2019-02-08T19:58:37.651Z,65.09
2019-02-08T20:01:09.951Z,65.01
2019-02-08T20:03:42.345Z,64.94
2019-02-08T20:06:14.767Z,64.79
2019-02-08T20:08:47.659Z,64.38
2019-02-08T20:11:20.026Z,64.37
2019-02-08T20:13:52.289Z,64.73
2019-02-08T20:16:24.594Z,64.85
2019-02-08T20:18:57.042Z,64.86
2019-02-08T20:21:29.467Z,65.15
2019-02-08T20:24:01.769Z,65.25
2019-02-08T20:26:34.092Z,65.35
2019-02-08T20:29:06.403Z,65.44
2019-02-08T20:31:38.683Z,65.37
2019-02-08T20:34:26.595Z,65.56
2019-02-08T20:36:58.973Z,65.63
2019-02-08T20:39:31.371Z,65.95
2019-02-08T20:42:03.785Z,66.36
2019-02-08T20:44:36.206Z,66.49
2019-02-08T20:47:08.518Z,66.23
2019-02-08T20:49:42.330Z,65.98
2019-02-08T20:52:14.647Z,66.46
2019-02-08T20:54:47.120Z,66.12
2019-02-08T20:57:19.351Z,65.94
2019-02-08T20:59:51.749Z,65.97
2019-02-08T21:02:24.300Z,66.32
2019-02-08T21:04:56.642Z,66.47
2019-02-08T21:07:29.026Z,66.63
2019-02-08T21:10:01.991Z,66.64
2019-02-08T21:12:35.661Z,66.55
2019-02-08T21:15:08.207Z,66.97
2019-02-08T21:17:40.528Z,66.54
2019-02-08T21:20:13.319Z,66.56
2019-02-08T21:22:45.796Z,66.04
2019-02-08T21:25:21.640Z,66.66
2019-02-08T21:27:54.068Z,67.24
2019-02-08T21:30:26.558Z,67.37
2019-02-08T21:32:59.033Z,67.36
2019-02-08T21:35:31.370Z,67.28
2019-02-08T21:38:03.794Z,67.19
2019-02-08T21:40:36.518Z,67.29
2019-02-08T21:43:09.529Z,67.05
2019-02-08T21:48:49.763Z,67.46
2019-02-08T21:51:22.112Z,67.69
2019-02-08T21:53:54.451Z,67.76
2019-02-08T21:56:26.926Z,68.05
2019-02-08T21:59:05.947Z,67.99
2019-02-08T22:01:33.533Z,68.12
2019-02-08T22:04:06.036Z,67.92
2019-02-08T22:06:38.479Z,67.93
2019-02-08T22:09:10.898Z,67.73
2019-02-08T22:11:43.981Z,67.75
2019-02-08T22:14:16.363Z,67.80
2019-02-08T22:16:48.694Z,67.62
2019-02-08T22:19:21.018Z,68.01
2019-02-08T22:21:53.336Z,68.43
2019-02-08T22:24:25.605Z,68.26
2019-02-08T22:26:58.014Z,68.43
2019-02-08T22:29:32.901Z,68.36
2019-02-08T22:32:05.365Z,68.57
2019-02-08T22:34:37.743Z,68.55
2019-02-08T22:37:09.993Z,68.12
2019-02-08T22:39:42.370Z,68.60
2019-02-08T22:42:15.255Z,68.37
2019-02-08T22:44:49.092Z,68.53
2019-02-08T22:47:21.415Z,68.44
2019-02-08T22:49:53.766Z,68.28
2019-02-08T22:52:26.135Z,68.30
2019-02-08T22:54:58.479Z,68.48
2019-02-08T22:57:30.708Z,68.45
2019-02-08T23:00:03.021Z,68.73
2019-02-08T23:02:37.228Z,68.82
2019-02-08T23:05:09.622Z,68.72
2019-02-08T23:07:42.018Z,68.56
2019-02-08T23:10:14.407Z,68.62
2019-02-08T23:12:46.710Z,68.32
2019-02-08T23:15:19.081Z,68.35
2019-02-08T23:17:51.481Z,68.26
2019-02-08T23:20:23.857Z,68.23
2019-02-08T23:22:56.280Z,68.44
2019-02-08T23:25:28.755Z,68.72
2019-02-08T23:28:01.197Z,68.49
2019-02-08T23:30:33.636Z,68.50
2019-02-08T23:33:06.120Z,68.66
2019-02-08T23:35:43.047Z,68.77
2019-02-08T23:38:12.535Z,68.78
2019-02-08T23:40:44.904Z,68.58
2019-02-08T23:43:19.589Z,68.64
2019-02-08T23:45:51.919Z,68.64
2019-02-08T23:48:24.305Z,68.52
2019-02-08T23:50:56.673Z,68.44
2019-02-08T23:53:28.963Z,68.55
2019-02-08T23:56:01.368Z,68.74
2019-02-08T23:58:33.704Z,68.63
